Time;durP1;ratioP1;P1;durP2;ratioP2;P2;SDS_P1;SDS_P2;PMS_P1;PMS_P2;Temp;Humidity;BMP_temperature;BMP_pressure;BME280_temperature;BME280_humidity;BME280_pressure;Samples;Min_cycle;Max_cycle;Signal;HPM_P1;HPM_P2
2021/03/04 00:00:51;0.00;0.00;0.62;0.00;0.00;0.62;;;;;15.00;1.00;;;;;;2264553;61;1011;-89
2021/03/04 00:03:18;70449.00;0.23;122.54;0.00;0.00;0.62;;;;;15.40;1.00;;;;;;2267844;61;1025;-89
2021/03/04 00:05:45;306062.00;1.02;528.34;65099.00;0.22;113.29;;;;;15.70;1.00;;;;;;2267874;61;1032;-89
2021/03/04 00:08:11;94621.00;0.32;164.29;0.00;0.00;0.62;;;;;15.60;1.00;;;;;;2267853;61;1303;-89
2021/03/04 00:10:38;448762.00;1.50;773.65;146761.00;0.49;254.23;;;;;15.60;1.00;;;;;;2255780;61;964;-89
2021/03/04 00:13:04;189655.00;0.63;328.11;0.00;0.00;0.62;;;;;15.20;1.00;;;;;;2250102;61;1999;-88
2021/03/04 00:15:32;106438.00;0.35;184.68;0.00;0.00;0.62;;;;;15.00;1.00;;;;;;2263860;61;1021;-89
2021/03/04 00:18:01;201908.00;0.67;349.21;25990.00;0.09;45.64;;;;;14.70;1.00;;;;;;2255743;61;1327;-87
2021/03/04 00:20:30;306193.00;1.02;528.57;58250.00;0.19;101.45;;;;;14.00;1.00;;;;;;2255861;61;1034;-87
2021/03/04 00:22:57;670442.00;2.23;1156.02;65141.00;0.22;113.36;;;;;13.70;1.00;;;;;;2255888;61;1163;-89
2021/03/04 00:25:25;113212.00;0.38;196.37;0.00;0.00;0.62;;;;;14.10;1.00;;;;;;2255857;61;1050;-89
2021/03/04 00:27:52;39534.00;0.13;69.08;0.00;0.00;0.62;;;;;14.40;1.00;;;;;;2257799;61;1300;-87
2021/03/04 00:30:20;19951.00;0.07;35.19;0.00;0.00;0.62;;;;;14.20;1.00;;;;;;2267804;61;1182;-89
2021/03/04 00:32:47;46871.00;0.16;81.77;0.00;0.00;0.62;;;;;14.10;1.00;;;;;;2261135;61;1997;-89
2021/03/04 00:35:14;255857.00;0.85;442.02;51398.00;0.17;89.60;;;;;14.60;1.00;;;;;;2261039;61;1042;-89
2021/03/04 00:37:41;69241.00;0.23;120.45;0.00;0.00;0.62;;;;;14.80;1.00;;;;;;2259719;61;994;-89
2021/03/04 00:40:10;118710.00;0.40;205.86;0.00;0.00;0.62;;;;;15.10;1.00;;;;;;2253081;61;978;-89
2021/03/04 00:42:38;97430.00;0.32;169.14;0.00;0.00;0.62;;;;;15.30;1.00;;;;;;2259735;61;1033;-90
2021/03/04 00:45:07;188747.00;0.63;326.55;0.00;0.00;0.62;;;;;14.90;1.00;;;;;;2256438;61;948;-88
2021/03/04 00:47:34;0.00;0.00;0.62;0.00;0.00;0.62;;;;;14.70;1.00;;;;;;2256384;61;1031;-89
2021/03/04 00:50:00;145875.00;0.49;252.70;37123.00;0.12;64.91;;;;;14.80;1.00;;;;;;2251698;61;1327;-88
2021/03/04 00:52:27;58855.00;0.20;102.50;0.00;0.00;0.62;;;;;14.30;1.00;;;;;;2249643;61;2006;-90
2021/03/04 00:54:54;92065.00;0.31;159.87;0.00;0.00;0.62;;;;;14.30;1.00;;;;;;2254913;61;1014;-89
2021/03/04 00:57:20;67740.00;0.23;117.85;0.00;0.00;0.62;;;;;14.40;1.00;;;;;;2261812;61;1047;-88
2021/03/04 00:59:46;97364.00;0.32;169.02;0.00;0.00;0.62;;;;;14.70;1.00;;;;;;2259633;61;1355;-89
2021/03/04 01:02:13;226937.00;0.76;392.28;30692.00;0.10;53.78;;;;;15.00;1.00;;;;;;2259706;61;1009;-89
2021/03/04 01:04:42;435850.00;1.45;751.45;91795.00;0.31;159.41;;;;;14.20;1.00;;;;;;2259739;61;1046;-89
2021/03/04 01:07:08;528646.00;1.76;911.16;21898.00;0.07;38.56;;;;;14.00;1.00;;;;;;2256838;61;1010;-89
2021/03/04 01:09:36;89353.00;0.30;155.19;20722.00;0.07;36.52;;;;;14.40;1.00;;;;;;2263722;61;1467;-89
2021/03/04 01:12:03;319867.00;1.07;552.07;50642.00;0.17;88.30;;;;;14.50;1.00;;;;;;2255539;61;1990;-90
2021/03/04 01:14:30;19547.00;0.07;34.49;0.00;0.00;0.62;;;;;14.30;1.00;;;;;;2247663;61;975;-89
2021/03/04 01:16:57;123029.00;0.41;213.31;0.00;0.00;0.62;;;;;13.90;1.00;;;;;;2243662;61;1051;-90
2021/03/04 01:19:24;201706.00;0.67;348.86;24812.00;0.08;43.60;;;;;14.30;1.00;;;;;;2257694;61;1408;-89
2021/03/04 01:21:50;341398.00;1.14;589.08;117226.00;0.39;203.30;;;;;14.20;1.00;;;;;;2257751;61;933;-89
2021/03/04 01:24:17;96493.00;0.32;167.52;0.00;0.00;0.62;;;;;14.10;1.00;;;;;;2264403;61;1096;-89
2021/03/04 01:26:44;169543.00;0.57;293.48;25912.00;0.09;45.51;;;;;14.40;1.00;;;;;;2254481;61;1006;-88
2021/03/04 01:29:12;154318.00;0.51;267.25;18692.00;0.06;33.00;;;;;14.60;1.00;;;;;;2265260;61;1385;-90
2021/03/04 01:31:38;189049.00;0.63;327.07;0.00;0.00;0.62;;;;;15.00;1.00;;;;;;2262979;61;1039;-89
2021/03/04 01:34:05;100270.00;0.33;174.04;0.00;0.00;0.62;;;;;15.30;1.00;;;;;;2266505;61;1959;-90
2021/03/04 01:36:31;39821.00;0.13;69.58;0.00;0.00;0.62;;;;;15.30;1.00;;;;;;2276912;61;1047;-90
2021/03/04 01:38:58;16602.00;0.06;29.39;0.00;0.00;0.62;;;;;15.30;1.00;;;;;;2276852;61;1506;-89
2021/03/04 01:41:24;458975.00;1.53;791.22;30539.00;0.10;53.52;;;;;15.50;1.00;;;;;;2266499;61;1069;-90
2021/03/04 01:43:51;145525.00;0.49;252.09;0.00;0.00;0.62;;;;;15.70;1.00;;;;;;2266456;61;1053;-89
2021/03/04 01:46:18;91903.00;0.31;159.59;0.00;0.00;0.62;;;;;15.70;1.00;;;;;;2269821;61;987;-89
2021/03/04 01:48:45;143061.00;0.48;247.85;0.00;0.00;0.62;;;;;15.90;1.00;;;;;;2276852;61;1334;-89
2021/03/04 01:51:11;32989.00;0.11;57.76;0.00;0.00;0.62;;;;;15.60;1.00;;;;;;2276873;61;1020;-90
2021/03/04 01:53:38;37418.00;0.12;65.42;0.00;0.00;0.62;;;;;15.70;1.00;;;;;;2276599;61;2006;-90
2021/03/04 01:56:06;40298.00;0.13;70.40;0.00;0.00;0.62;;;;;15.80;1.00;;;;;;2276875;61;999;-89
2021/03/04 01:58:32;225609.00;0.75;389.99;46320.00;0.15;80.82;;;;;15.30;1.00;;;;;;2266430;61;1362;-89
2021/03/04 02:01:00;165926.00;0.55;287.25;24458.00;0.08;42.99;;;;;15.10;1.00;;;;;;2266498;61;1026;-89
2021/03/04 02:03:27;203908.00;0.68;352.65;0.00;0.00;0.62;;;;;14.80;1.00;;;;;;2269734;61;1029;-88
2021/03/04 02:05:53;262255.00;0.87;453.03;0.00;0.00;0.62;;;;;14.30;1.00;;;;;;2266435;61;1026;-89
2021/03/04 02:08:25;111494.00;0.37;193.41;0.00;0.00;0.62;;;;;14.10;1.00;;;;;;2276521;61;1467;-88
2021/03/04 02:10:57;101985.00;0.34;177.00;0.00;0.00;0.62;;;;;14.10;1.00;;;;;;2276793;61;1018;-89
2021/03/04 02:13:28;129022.00;0.43;223.64;0.00;0.00;0.62;;;;;14.30;1.00;;;;;;2276781;61;1914;-90
2021/03/04 02:16:02;11785.00;0.04;21.04;0.00;0.00;0.62;;;;;14.60;1.00;;;;;;2276718;61;1043;-89
2021/03/04 02:18:31;240324.00;0.80;415.31;70817.00;0.24;123.17;;;;;14.90;1.00;;;;;;2266328;61;1368;-89
2021/03/04 02:21:18;229721.00;0.77;397.07;31553.00;0.11;55.27;;;;;15.00;1.00;;;;;;2272212;61;998;-90
2021/03/04 02:23:59;39184.00;0.13;68.48;0.00;0.00;0.62;;;;;15.30;1.00;;;;;;2272269;61;938;-88
2021/03/04 02:26:36;156646.00;0.52;271.26;7199.00;0.02;13.10;;;;;14.80;1.00;;;;;;2262126;61;948;-89
2021/03/04 02:29:07;20273.00;0.07;35.74;0.00;0.00;0.62;;;;;14.80;1.00;;;;;;2265509;61;1397;-89
2021/03/04 02:31:40;106038.00;0.35;183.99;0.00;0.00;0.62;;;;;15.10;1.00;;;;;;2264050;61;1246;-89
2021/03/04 02:34:10;271404.00;0.90;468.76;29801.00;0.10;52.24;;;;;15.00;1.00;;;;;;2264138;61;1999;-89
2021/03/04 02:36:41;15946.00;0.05;28.25;0.00;0.00;0.62;;;;;14.70;1.00;;;;;;2257481;61;962;-88
2021/03/04 02:39:08;69106.00;0.23;120.22;0.00;0.00;0.62;;;;;14.80;1.00;;;;;;2266387;61;1392;-89
2021/03/04 02:41:38;183842.00;0.61;318.11;32663.00;0.11;57.19;;;;;14.70;1.00;;;;;;2261508;61;993;-89
2021/03/04 02:44:10;95427.00;0.32;165.68;0.00;0.00;0.62;;;;;14.70;1.00;;;;;;2268157;61;1039;-90
2021/03/04 02:46:39;54059.00;0.18;94.21;0.00;0.00;0.62;;;;;14.80;1.00;;;;;;2264757;61;1009;-90
2021/03/04 02:49:06;60247.00;0.20;104.90;0.00;0.00;0.62;;;;;15.00;1.00;;;;;;2263829;61;1479;-89
2021/03/04 02:51:36;384120.00;1.28;662.51;65333.00;0.22;113.70;;;;;14.90;1.00;;;;;;2276591;61;1033;-88
2021/03/04 02:54:04;270218.00;0.90;466.72;27832.00;0.09;48.83;;;;;15.00;1.00;;;;;;2276470;61;1991;-89
2021/03/04 02:56:33;107638.00;0.36;186.75;0.00;0.00;0.62;;;;;15.10;1.00;;;;;;2276664;61;910;-88
2021/03/04 02:59:05;0.00;0.00;0.62;0.00;0.00;0.62;;;;;15.30;1.00;;;;;;2266212;61;1460;-90
2021/03/04 03:01:34;47971.00;0.16;83.68;0.00;0.00;0.62;;;;;15.60;1.00;;;;;;2266222;61;949;-89
2021/03/04 03:04:03;184935.00;0.62;319.99;36574.00;0.12;63.96;;;;;15.60;1.00;;;;;;2269546;61;963;-89
2021/03/04 03:06:31;0.00;0.00;0.62;0.00;0.00;0.62;;;;;15.50;1.00;;;;;;2267856;61;963;-88
2021/03/04 03:08:58;120498.00;0.40;208.94;0.00;0.00;0.62;;;;;15.50;1.00;;;;;;2268059;61;1441;-90
2021/03/04 03:11:26;178360.00;0.59;308.67;45080.00;0.15;78.68;;;;;15.50;1.00;;;;;;2258118;61;1046;-89
2021/03/04 03:13:54;130101.00;0.43;225.50;0.00;0.00;0.62;;;;;15.30;1.00;;;;;;2259886;61;1914;-89
2021/03/04 03:16:21;167336.00;0.56;289.68;0.00;0.00;0.62;;;;;15.50;1.00;;;;;;2250149;61;1022;-89
2021/03/04 03:18:48;0.00;0.00;0.62;0.00;0.00;0.62;;;;;15.40;1.00;;;;;;2253088;61;1287;-89
2021/03/04 03:21:15;52385.00;0.17;91.31;0.00;0.00;0.62;;;;;15.40;1.00;;;;;;2260017;61;1060;-89
2021/03/04 03:23:41;14590.00;0.05;25.90;0.00;0.00;0.62;;;;;15.30;1.00;;;;;;2251246;61;1060;-88
2021/03/04 03:26:08;196863.00;0.66;340.52;68935.00;0.23;119.92;;;;;15.00;1.00;;;;;;2261352;61;965;-90
2021/03/04 03:28:34;53241.00;0.18;92.79;0.00;0.00;0.62;;;;;14.90;1.00;;;;;;2261316;61;1463;-90
2021/03/04 03:31:01;72645.00;0.24;126.33;0.00;0.00;0.62;;;;;15.10;1.00;;;;;;2262327;61;972;-88
2021/03/04 03:33:29;91465.00;0.30;158.84;25390.00;0.08;44.60;;;;;15.30;1.00;;;;;;2269448;61;2001;-90
2021/03/04 03:35:57;72810.00;0.24;126.62;0.00;0.00;0.62;;;;;15.10;1.00;;;;;;2269361;61;975;-90
2021/03/04 03:38:25;59853.00;0.20;104.22;0.00;0.00;0.62;;;;;15.10;1.00;;;;;;2265875;61;1357;-89
2021/03/04 03:40:55;34332.00;0.11;60.08;0.00;0.00;0.62;;;;;15.00;1.00;;;;;;2263891;61;969;-89
2021/03/04 03:43:24;168067.00;0.56;290.94;0.00;0.00;0.62;;;;;14.80;1.00;;;;;;2263952;61;1017;-89
2021/03/04 03:45:52;143947.00;0.48;249.37;36995.00;0.12;64.69;;;;;15.00;1.00;;;;;;2263809;61;1042;-89
2021/03/04 03:48:21;54740.00;0.18;95.38;0.00;0.00;0.62;;;;;15.10;1.00;;;;;;2260266;61;1393;-88
2021/03/04 03:50:51;131943.00;0.44;228.68;0.00;0.00;0.62;;;;;15.10;1.00;;;;;;2263968;61;1076;-88
2021/03/04 03:53:19;31971.00;0.11;55.99;0.00;0.00;0.62;;;;;15.00;1.00;;;;;;2263899;61;2002;-90
2021/03/04 03:55:47;49169.00;0.16;85.75;0.00;0.00;0.62;;;;;15.00;1.00;;;;;;2257195;61;1016;-89
2021/03/04 03:58:16;45368.00;0.15;79.17;0.00;0.00;0.62;;;;;15.00;1.00;;;;;;2259819;61;1380;-89
2021/03/04 04:00:43;65503.00;0.22;113.99;0.00;0.00;0.62;;;;;15.00;1.00;;;;;;2272680;61;986;-89
2021/03/04 04:03:10;62753.00;0.21;109.24;0.00;0.00;0.62;;;;;15.10;1.00;;;;;;2276424;61;1031;-88
2021/03/04 04:05:38;253.00;0.00;1.06;0.00;0.00;0.62;;;;;15.20;1.00;;;;;;2276391;61;986;-88
2021/03/04 04:08:05;7931.00;0.03;14.36;0.00;0.00;0.62;;;;;15.30;1.00;;;;;;2265927;61;1510;-88
2021/03/04 04:10:35;0.00;0.00;0.62;0.00;0.00;0.62;;;;;15.30;1.00;;;;;;2265967;61;983;-89
2021/03/04 04:13:02;0.00;0.00;0.62;0.00;0.00;0.62;;;;;15.50;1.00;;;;;;2276425;61;1990;-90
2021/03/04 04:15:31;619102.00;2.06;1067.21;269709.00;0.90;465.84;;;;;15.40;1.00;;;;;;2275955;61;1027;-89
2021/03/04 04:17:59;558.00;0.00;1.59;0.00;0.00;0.62;;;;;15.20;1.00;;;;;;2265953;61;1482;-88
2021/03/04 04:20:26;0.00;0.00;0.62;0.00;0.00;0.62;;;;;15.30;1.00;;;;;;2266018;61;997;-89
2021/03/04 04:22:54;544704.00;1.82;938.83;70792.00;0.24;123.13;;;;;15.10;1.00;;;;;;2269091;61;972;-89
2021/03/04 04:25:22;218921.00;0.73;378.49;32807.00;0.11;57.44;;;;;14.60;1.00;;;;;;2276377;61;1038;-89
2021/03/04 04:27:50;220375.00;0.73;380.99;0.00;0.00;0.62;;;;;14.20;1.00;;;;;;2265945;61;1341;-89
2021/03/04 04:30:19;27848.00;0.09;48.86;0.00;0.00;0.62;;;;;14.40;1.00;;;;;;2276251;61;1076;-89
2021/03/04 04:32:46;5766.00;0.02;10.61;0.00;0.00;0.62;;;;;14.90;1.00;;;;;;2269218;61;1920;-90
2021/03/04 04:35:14;55195.00;0.18;96.17;0.00;0.00;0.62;;;;;15.20;1.00;;;;;;2272461;61;951;-89
2021/03/04 04:37:40;147488.00;0.49;255.48;0.00;0.00;0.62;;;;;15.10;1.00;;;;;;2265947;61;1063;-90
2021/03/04 04:40:08;121981.00;0.41;211.50;0.00;0.00;0.62;;;;;14.80;1.00;;;;;;2265812;61;1500;-89
2021/03/04 04:42:35;35061.00;0.12;61.34;0.00;0.00;0.62;;;;;14.50;1.00;;;;;;2267687;61;916;-89
2021/03/04 04:45:05;6662.00;0.02;12.17;0.00;0.00;0.62;;;;;14.70;1.00;;;;;;2267835;61;1021;-89
2021/03/04 04:47:32;0.00;0.00;0.62;0.00;0.00;0.62;;;;;14.80;1.00;;;;;;2267828;61;1037;-89
2021/03/04 04:49:58;72152.00;0.24;125.48;0.00;0.00;0.62;;;;;14.90;1.00;;;;;;2268216;61;1436;-89
2021/03/04 04:52:25;213299.00;0.71;368.81;42685.00;0.14;74.53;;;;;14.70;1.00;;;;;;2268825;61;2014;-90
2021/03/04 04:54:51;48660.00;0.16;84.87;0.00;0.00;0.62;;;;;14.30;1.00;;;;;;2269019;61;1011;-87
2021/03/04 04:57:18;244474.00;0.81;422.45;0.00;0.00;0.62;;;;;14.10;1.00;;;;;;2265173;61;1021;-89
2021/03/04 04:59:45;273565.00;0.91;472.47;46303.00;0.15;80.79;;;;;13.80;1.00;;;;;;2270129;61;1391;-89
2021/03/04 05:02:12;248291.00;0.83;429.01;0.00;0.00;0.62;;;;;13.40;1.00;;;;;;2277680;61;973;-88
2021/03/04 05:04:39;68481.00;0.23;119.14;0.00;0.00;0.62;;;;;13.30;1.00;;;;;;2267259;61;1042;-89
2021/03/04 05:07:05;404702.00;1.35;697.89;35488.00;0.12;62.08;;;;;12.60;1.00;;;;;;2267096;61;965;-90
2021/03/04 05:09:32;54564.00;0.18;95.08;0.00;0.00;0.62;;;;;12.50;1.00;;;;;;2270516;61;1472;-88
2021/03/04 05:11:58;259641.00;0.87;448.53;0.00;0.00;0.62;;;;;12.60;1.00;;;;;;2273606;61;1039;-89
2021/03/04 05:14:25;0.00;0.00;0.62;0.00;0.00;0.62;;;;;13.20;1.00;;;;;;2270500;61;1920;-89
2021/03/04 05:16:52;165751.00;0.55;286.95;0.00;0.00;0.62;;;;;13.80;1.00;;;;;;2273652;61;986;-88
2021/03/04 05:19:19;105994.00;0.35;183.92;0.00;0.00;0.62;;;;;14.30;1.00;;;;;;2273717;61;1253;-88
2021/03/04 05:21:45;165788.00;0.55;287.01;20168.00;0.07;35.56;;;;;14.50;1.00;;;;;;2277567;61;1044;-89
2021/03/04 05:24:12;15668.00;0.05;27.77;0.00;0.00;0.62;;;;;14.40;1.00;;;;;;2277425;61;917;-89
2021/03/04 05:26:38;76029.00;0.25;132.18;0.00;0.00;0.62;;;;;14.50;1.00;;;;;;2267080;61;942;-88
2021/03/04 05:29:05;66793.00;0.22;116.22;0.00;0.00;0.62;;;;;14.50;1.00;;;;;;2273646;61;1367;-89
2021/03/04 05:31:32;202865.00;0.68;350.86;0.00;0.00;0.62;;;;;14.70;1.00;;;;;;2270388;61;987;-88
2021/03/04 05:33:59;40572.00;0.14;70.88;0.00;0.00;0.62;;;;;14.40;1.00;;;;;;2266977;61;2008;-88
2021/03/04 05:36:26;5386.00;0.02;9.95;0.00;0.00;0.62;;;;;13.90;1.00;;;;;;2277452;61;933;-89
2021/03/04 05:38:52;82798.00;0.28;143.87;0.00;0.00;0.62;;;;;13.70;1.00;;;;;;2270312;61;1317;-88
2021/03/04 05:41:22;139482.00;0.46;241.68;57941.00;0.19;100.92;;;;;13.60;1.00;;;;;;2277187;61;1130;-89
2021/03/04 05:43:49;124362.00;0.41;215.61;32057.00;0.11;56.14;;;;;13.60;1.00;;;;;;2273497;61;1025;-88
2021/03/04 05:46:20;10315.00;0.03;18.49;0.00;0.00;0.62;;;;;13.50;1.00;;;;;;2277157;61;901;-87
2021/03/04 05:48:48;97527.00;0.33;169.30;0.00;0.00;0.62;;;;;13.90;1.00;;;;;;2277368;61;1393;-88
2021/03/04 05:51:18;75371.00;0.25;131.04;0.00;0.00;0.62;;;;;14.20;1.00;;;;;;2277374;61;1094;-87
2021/03/04 05:53:47;6152.00;0.02;11.28;0.00;0.00;0.62;;;;;14.30;1.00;;;;;;2270318;61;1908;-88
2021/03/04 05:56:16;71272.00;0.24;123.96;0.00;0.00;0.62;;;;;14.30;1.00;;;;;;2277368;61;1116;-87
2021/03/04 05:58:44;174416.00;0.58;301.87;0.00;0.00;0.62;;;;;14.30;1.00;;;;;;2277371;61;1371;-87
2021/03/04 06:01:11;51477.00;0.17;89.74;0.00;0.00;0.62;;;;;14.20;1.00;;;;;;2277191;61;1026;-88
2021/03/04 06:03:39;106978.00;0.36;185.62;0.00;0.00;0.62;;;;;13.60;1.00;;;;;;2276464;61;1667;-87
2021/03/04 06:06:06;159604.00;0.53;276.36;0.00;0.00;0.62;;;;;13.30;1.00;;;;;;2276737;61;930;-88
2021/03/04 06:08:33;112348.00;0.37;194.88;0.00;0.00;0.62;;;;;13.40;1.00;;;;;;2276460;61;1316;-87
2021/03/04 06:11:02;150671.00;0.50;260.96;0.00;0.00;0.62;;;;;13.80;1.00;;;;;;2276695;61;1139;-88
2021/03/04 06:13:28;141885.00;0.47;245.82;0.00;0.00;0.62;;;;;14.00;1.00;;;;;;2276701;61;1915;-87
2021/03/04 06:15:55;71653.00;0.24;124.62;0.00;0.00;0.62;;;;;14.40;1.00;;;;;;2276720;61;918;-88
2021/03/04 06:18:22;151926.00;0.51;263.13;0.00;0.00;0.62;;;;;14.50;1.00;;;;;;2276690;61;1412;-88
2021/03/04 06:20:49;222830.00;0.74;385.21;32544.00;0.11;56.99;;;;;14.20;1.00;;;;;;2276685;61;1052;-87
2021/03/04 06:23:15;233433.00;0.78;403.45;81939.00;0.27;142.39;;;;;14.10;1.00;;;;;;2276680;61;1015;-87
2021/03/04 06:25:45;0.00;0.00;0.62;0.00;0.00;0.62;;;;;14.20;1.00;;;;;;2276536;61;1709;-86
2021/03/04 06:28:13;233405.00;0.78;403.41;22138.00;0.07;38.97;;;;;14.50;1.00;;;;;;2276663;61;1345;-87
2021/03/04 06:30:40;71635.00;0.24;124.59;0.00;0.00;0.62;;;;;14.80;1.00;;;;;;2276258;61;1135;-87
2021/03/04 06:33:09;64195.00;0.21;111.73;0.00;0.00;0.62;;;;;14.80;1.00;;;;;;2276489;61;1910;-87
2021/03/04 06:35:40;36211.00;0.12;63.33;0.00;0.00;0.62;;;;;14.80;1.00;;;;;;2276608;61;955;-88
2021/03/04 06:38:15;391585.00;1.31;675.34;0.00;0.00;0.62;;;;;14.70;1.00;;;;;;2276626;61;1302;-87
2021/03/04 06:40:41;296127.00;0.99;511.26;0.00;0.00;0.62;;;;;14.70;1.00;;;;;;2276681;61;1087;-87
2021/03/04 06:43:16;21526.00;0.07;37.91;0.00;0.00;0.62;;;;;14.50;1.00;;;;;;2276566;61;1296;-87
2021/03/04 06:45:44;101884.00;0.34;176.82;0.00;0.00;0.62;;;;;14.40;1.00;;;;;;2276657;61;937;-87
2021/03/04 06:48:12;137207.00;0.46;237.76;0.00;0.00;0.62;;;;;14.00;1.00;;;;;;2276638;61;1394;-87
2021/03/04 06:50:40;174535.00;0.58;302.08;55030.00;0.18;95.88;;;;;13.50;1.00;;;;;;2276598;61;1073;-88
2021/03/04 06:53:14;107653.00;0.36;186.78;40904.00;0.14;71.45;;;;;13.40;1.00;;;;;;2276419;61;1913;-87
2021/03/04 06:55:49;127918.00;0.43;221.74;0.00;0.00;0.62;;;;;13.30;1.00;;;;;;2276423;61;1536;-87
2021/03/04 06:58:22;230309.00;0.77;398.08;42778.00;0.14;74.69;;;;;13.50;1.00;;;;;;2276188;61;1686;-87
2021/03/04 07:01:04;259991.00;0.87;449.13;25266.00;0.08;44.39;;;;;13.80;1.00;;;;;;2276576;61;1013;-88
2021/03/04 07:03:41;239982.00;0.80;414.72;0.00;0.00;0.62;;;;;14.10;1.00;;;;;;2276514;61;1162;-88
2021/03/04 07:06:10;19705.00;0.07;34.76;0.00;0.00;0.62;;;;;14.10;1.00;;;;;;2276537;61;1128;-88
2021/03/04 07:08:39;19492.00;0.06;34.39;0.00;0.00;0.62;;;;;14.00;1.00;;;;;;2276494;61;1703;-87
2021/03/04 07:11:07;460501.00;1.54;793.85;53084.00;0.18;92.52;;;;;14.10;1.00;;;;;;2276441;61;1158;-88
2021/03/04 07:13:36;0.00;0.00;0.62;0.00;0.00;0.62;;;;;14.40;1.00;;;;;;2276209;61;1915;-88
2021/03/04 07:16:05;31406.00;0.10;55.02;0.00;0.00;0.62;;;;;14.40;1.00;;;;;;2276547;61;1130;-86
2021/03/04 07:18:39;57271.00;0.19;99.76;0.00;0.00;0.62;;;;;14.20;1.00;;;;;;2276480;61;1402;-87
2021/03/04 07:21:09;68402.00;0.23;119.00;0.00;0.00;0.62;;;;;14.40;1.00;;;;;;2276391;61;1574;-87
2021/03/04 07:23:38;137239.00;0.46;237.81;0.00;0.00;0.62;;;;;14.40;1.00;;;;;;2276478;61;1129;-87
2021/03/04 07:26:05;28926.00;0.10;50.72;0.00;0.00;0.62;;;;;14.60;1.00;;;;;;2276438;61;1116;-88
2021/03/04 07:28:32;115808.00;0.39;200.85;0.00;0.00;0.62;;;;;14.50;1.00;;;;;;2276481;61;1453;-87
2021/03/04 07:30:59;115299.00;0.38;199.97;0.00;0.00;0.62;;;;;14.60;1.00;;;;;;2276442;61;1911;-87
2021/03/04 07:33:29;202187.00;0.67;349.69;0.00;0.00;0.62;;;;;14.70;1.00;;;;;;2276384;61;1998;-87
2021/03/04 07:35:56;150142.00;0.50;260.05;0.00;0.00;0.62;;;;;14.40;1.00;;;;;;2276423;61;1046;-87
2021/03/04 07:38:27;122695.00;0.41;212.73;0.00;0.00;0.62;;;;;14.10;1.00;;;;;;2276339;61;1384;-87
2021/03/04 07:41:05;69217.00;0.23;120.41;0.00;0.00;0.62;;;;;14.00;1.00;;;;;;2276363;61;1130;-88
2021/03/04 07:43:46;100167.00;0.33;173.86;0.00;0.00;0.62;;;;;13.90;1.00;;;;;;2276349;61;915;-87
2021/03/04 07:46:13;316749.00;1.06;546.71;80357.00;0.27;139.65;;;;;14.00;1.00;;;;;;2276355;61;1052;-88
2021/03/04 07:48:50;287115.00;0.96;495.77;83156.00;0.28;144.49;;;;;14.00;1.00;;;;;;2276271;61;1411;-87
2021/03/04 07:51:17;477744.00;1.59;823.52;86702.00;0.29;150.61;;;;;14.30;1.00;;;;;;2276345;61;1060;-88
2021/03/04 07:53:45;326993.00;1.09;564.32;99246.00;0.33;172.27;;;;;14.50;1.00;;;;;;2276365;61;1993;-87
2021/03/04 07:56:26;96713.00;0.32;167.90;0.00;0.00;0.62;;;;;14.50;1.00;;;;;;2276227;61;1042;-88
2021/03/04 07:58:53;579185.00;1.93;998.29;207432.00;0.69;358.72;;;;;14.80;1.00;;;;;;2276302;61;1338;-88
2021/03/04 08:01:19;421870.00;1.41;727.41;95575.00;0.32;165.93;;;;;15.00;1.00;;;;;;2276397;61;1020;-88
2021/03/04 08:03:48;142829.00;0.48;247.45;0.00;0.00;0.62;;;;;15.20;1.00;;;;;;2276294;61;1030;-87
2021/03/04 08:06:16;70417.00;0.23;122.48;0.00;0.00;0.62;;;;;15.30;1.00;;;;;;2276225;61;1098;-88
2021/03/04 08:08:45;0.00;0.00;0.62;0.00;0.00;0.62;;;;;15.40;1.00;;;;;;2276283;61;1327;-87
2021/03/04 08:11:11;204032.00;0.68;352.86;0.00;0.00;0.62;;;;;15.90;1.00;;;;;;2265884;61;995;-86
2021/03/04 08:13:39;91914.00;0.31;159.61;0.00;0.00;0.62;;;;;16.20;1.00;;;;;;2276191;61;1992;-88
2021/03/04 08:16:13;106650.00;0.36;185.05;0.00;0.00;0.62;;;;;16.30;1.00;;;;;;2276283;61;1035;-88
2021/03/04 08:18:40;9384.00;0.03;16.88;0.00;0.00;0.62;;;;;16.60;1.00;;;;;;2276084;61;1465;-86
2021/03/04 08:21:08;6819.00;0.02;12.44;0.00;0.00;0.62;;;;;16.90;1.00;;;;;;2269231;61;949;-87
2021/03/04 08:23:42;130206.00;0.43;225.68;0.00;0.00;0.62;;;;;17.20;1.00;;;;;;2275969;61;1613;-87
2021/03/04 08:26:23;27395.00;0.09;48.07;0.00;0.00;0.62;;;;;17.40;1.00;;;;;;2276148;61;1090;-86
2021/03/04 08:29:01;293934.00;0.98;507.49;78723.00;0.26;136.83;;;;;17.20;1.00;;;;;;2263638;61;1450;-87
2021/03/04 08:31:29;450207.00;1.50;776.14;117839.00;0.39;204.35;;;;;16.80;1.00;;;;;;2263613;61;1053;-87
2021/03/04 08:33:56;212662.00;0.71;367.72;81535.00;0.27;141.69;;;;;17.30;1.00;;;;;;2263561;61;2000;-87
2021/03/04 08:36:23;379619.00;1.27;654.77;97161.00;0.32;168.67;;;;;17.60;1.00;;;;;;2263258;61;1019;-86
2021/03/04 08:38:50;208397.00;0.69;360.38;84436.00;0.28;146.70;;;;;17.60;1.00;;;;;;2263610;61;1434;-87
2021/03/04 08:41:21;64151.00;0.21;111.65;0.00;0.00;0.62;;;;;17.60;1.00;;;;;;2263590;61;1075;-87
2021/03/04 08:43:48;92625.00;0.31;160.84;0.00;0.00;0.62;;;;;17.40;1.00;;;;;;2263698;61;1127;-87
2021/03/04 08:46:15;1397602.00;4.66;2451.88;269801.00;0.90;466.00;;;;;17.70;1.00;;;;;;2266418;61;1151;-86
2021/03/04 08:48:45;277044.00;0.92;478.46;25536.00;0.09;44.86;;;;;17.70;1.00;;;;;;2271577;61;1411;-86
2021/03/04 08:51:12;74909.00;0.25;130.24;0.00;0.00;0.62;;;;;17.80;1.00;;;;;;2271682;61;1006;-86
2021/03/04 08:53:39;311380.00;1.04;537.48;41473.00;0.14;72.44;;;;;17.70;1.00;;;;;;2271596;61;2001;-87
2021/03/04 08:56:08;283433.00;0.94;489.44;48884.00;0.16;85.26;;;;;17.50;1.00;;;;;;2271699;61;1071;-87
2021/03/04 08:58:40;195980.00;0.65;339.00;32770.00;0.11;57.38;;;;;17.40;1.00;;;;;;2261653;61;1382;-87
2021/03/04 09:01:07;244698.00;0.82;422.83;0.00;0.00;0.62;;;;;17.50;1.00;;;;;;2271593;61;1051;-87
2021/03/04 09:03:35;153238.00;0.51;265.39;0.00;0.00;0.62;;;;;17.00;1.00;;;;;;2271061;61;1806;-86
2021/03/04 09:06:06;68633.00;0.23;119.40;0.00;0.00;0.62;;;;;16.80;1.00;;;;;;2272415;61;1039;-87
2021/03/04 09:08:34;45015.00;0.15;78.56;0.00;0.00;0.62;;;;;16.70;1.00;;;;;;2275472;61;1270;-86
2021/03/04 09:11:01;157744.00;0.53;273.15;0.00;0.00;0.62;;;;;16.90;1.00;;;;;;2275936;61;1022;-87
2021/03/04 09:13:29;35582.00;0.12;62.24;0.00;0.00;0.62;;;;;16.90;1.00;;;;;;2276074;61;1911;-86
2021/03/04 09:15:58;224904.00;0.75;388.78;28600.00;0.10;50.16;;;;;17.20;1.00;;;;;;2272086;61;951;-87
2021/03/04 09:18:26;69022.00;0.23;120.07;0.00;0.00;0.62;;;;;17.40;1.00;;;;;;2265617;61;1404;-87
2021/03/04 09:20:53;122581.00;0.41;212.53;27229.00;0.09;47.79;;;;;17.20;1.00;;;;;;2276175;61;1111;-87
2021/03/04 09:23:21;143832.00;0.48;249.18;4204.00;0.01;7.91;;;;;16.70;1.00;;;;;;2276171;61;1032;-88
2021/03/04 09:25:48;40538.00;0.14;70.82;0.00;0.00;0.62;;;;;16.70;1.00;;;;;;2275985;61;1166;-87
2021/03/04 09:28:16;187973.00;0.63;325.22;0.00;0.00;0.62;;;;;16.90;1.00;;;;;;2276044;61;1431;-87
2021/03/04 09:30:44;261195.00;0.87;451.20;0.00;0.00;0.62;;;;;16.80;1.00;;;;;;2265689;61;1022;-86
2021/03/04 09:33:28;19719.00;0.07;34.78;0.00;0.00;0.62;;;;;17.00;1.00;;;;;;2276041;61;2013;-88
2021/03/04 09:35:56;49530.00;0.17;86.37;0.00;0.00;0.62;;;;;17.10;1.00;;;;;;2275741;61;1137;-87
2021/03/04 09:38:23;578102.00;1.93;996.42;242364.00;0.81;418.82;;;;;17.40;1.00;;;;;;2276739;61;1339;-87
2021/03/04 09:40:55;26100.00;0.09;45.83;0.00;0.00;0.62;;;;;17.40;1.00;;;;;;2276283;61;966;-87
2021/03/04 09:45:53;37637.00;0.13;65.80;0.00;0.00;0.62;;;;;17.70;1.00;;;;;;2278826;61;1401;-87
2021/03/04 09:48:31;23759.00;0.08;41.78;0.00;0.00;0.62;;;;;17.30;1.00;;;;;;2276699;61;1451;-87
2021/03/04 09:50:59;70059.00;0.23;121.86;0.00;0.00;0.62;;;;;17.40;1.00;;;;;;2276304;61;1062;-87
2021/03/04 09:53:25;106740.00;0.36;185.20;0.00;0.00;0.62;;;;;17.40;1.00;;;;;;2264106;61;2007;-86
2021/03/04 09:55:53;116895.00;0.39;202.73;38798.00;0.13;67.81;;;;;17.40;1.00;;;;;;2264012;61;1006;-87
2021/03/04 09:58:22;234741.00;0.78;405.70;0.00;0.00;0.62;;;;;17.40;1.00;;;;;;2257507;61;1362;-87
2021/03/04 10:00:58;87423.00;0.29;151.86;0.00;0.00;0.62;;;;;17.10;1.00;;;;;;2260772;61;1008;-87
2021/03/04 10:03:32;0.00;0.00;0.62;0.00;0.00;0.62;;;;;17.30;1.00;;;;;;2264214;61;1057;-87
2021/03/04 10:05:59;177796.00;0.59;307.69;15856.00;0.05;28.09;;;;;17.00;1.00;;;;;;2264091;61;1130;-87